Time;durP1;ratioP1;P1;durP2;ratioP2;P2;SDS_P1;SDS_P2;PMS_P1;PMS_P2;Temp;Humidity;BMP_temperature;BMP_pressure;BME280_temperature;BME280_humidity;BME280_pressure;Samples;Min_cycle;Max_cycle;Signal;HPM_P1;HPM_P2
2021/08/31 00:00:14;;;;;;;8.57;6.78;;;16.40;99.90;;;;;;5095592;28;20202;-74
2021/08/31 00:02:41;;;;;;;8.95;6.93;;;16.30;99.90;;;;;;5095371;28;20232;-75
2021/08/31 00:05:09;;;;;;;9.10;6.40;;;16.30;99.90;;;;;;5094307;28;20972;-76
2021/08/31 00:07:36;;;;;;;7.95;6.43;;;16.30;99.90;;;;;;5084692;28;20198;-76
2021/08/31 00:10:04;;;;;;;8.10;5.75;;;16.30;99.90;;;;;;5083305;28;20270;-76
2021/08/31 00:12:31;;;;;;;7.43;6.57;;;16.40;99.90;;;;;;5083103;28;20213;-75
2021/08/31 00:14:59;;;;;;;7.30;5.85;;;16.40;99.90;;;;;;5083374;28;20308;-75
2021/08/31 00:17:26;;;;;;;7.50;5.25;;;16.40;99.90;;;;;;5084683;28;20292;-74
2021/08/31 00:19:53;;;;;;;9.00;6.60;;;16.40;99.90;;;;;;5086809;28;20255;-76
2021/08/31 00:22:20;;;;;;;7.55;5.82;;;16.40;99.90;;;;;;5095481;28;20202;-77
2021/08/31 00:24:47;;;;;;;6.20;5.47;;;16.40;99.90;;;;;;5095411;28;20208;-78
2021/08/31 00:27:14;;;;;;;7.95;6.15;;;16.40;99.90;;;;;;5095012;28;20231;-79
2021/08/31 00:29:41;;;;;;;9.02;6.72;;;16.40;99.90;;;;;;5095537;28;20214;-77
2021/08/31 00:32:10;;;;;;;7.13;5.75;;;16.40;99.90;;;;;;5094796;28;20309;-77
2021/08/31 00:34:37;;;;;;;10.98;6.80;;;16.40;99.90;;;;;;5094685;28;20224;-77
2021/08/31 00:37:04;;;;;;;8.00;6.00;;;16.40;99.90;;;;;;5094469;28;20705;-77
2021/08/31 00:39:32;;;;;;;8.02;6.00;;;16.40;99.90;;;;;;5095109;28;20201;-77
2021/08/31 00:41:59;;;;;;;8.65;6.75;;;16.30;99.90;;;;;;5094508;28;20267;-77
2021/08/31 00:44:28;;;;;;;8.25;6.28;;;16.30;99.90;;;;;;5094435;28;20222;-77
2021/08/31 00:46:55;;;;;;;8.65;6.68;;;16.30;99.90;;;;;;5095404;28;20313;-77
2021/08/31 00:49:24;;;;;;;8.30;6.68;;;16.30;99.90;;;;;;5094982;28;20198;-75
2021/08/31 00:51:51;;;;;;;9.32;7.32;;;16.30;99.90;;;;;;5094547;28;20226;-74
2021/08/31 00:54:19;;;;;;;8.95;6.85;;;16.40;99.90;;;;;;5094452;28;20239;-73
2021/08/31 00:56:46;;;;;;;8.68;6.88;;;16.40;99.90;;;;;;5094079;28;20781;-74
2021/08/31 00:59:13;;;;;;;8.45;6.72;;;16.50;99.90;;;;;;5094472;28;20681;-75
2021/08/31 01:01:40;;;;;;;9.90;6.43;;;16.50;99.90;;;;;;5094671;28;20200;-75
2021/08/31 01:04:07;;;;;;;9.90;7.10;;;16.50;99.90;;;;;;5094081;28;20702;-76
2021/08/31 01:06:35;;;;;;;10.45;7.43;;;16.50;99.90;;;;;;5094140;28;20215;-74
2021/08/31 01:09:02;;;;;;;10.35;8.02;;;16.50;99.90;;;;;;5094252;28;20200;-75
2021/08/31 01:11:29;;;;;;;10.48;7.95;;;16.40;99.90;;;;;;5094292;28;20226;-77
2021/08/31 01:13:56;;;;;;;13.48;8.25;;;16.40;99.90;;;;;;5096909;28;20235;-77
2021/08/31 01:16:23;;;;;;;10.68;8.30;;;16.40;99.90;;;;;;5102830;28;20292;-78
2021/08/31 01:18:50;;;;;;;11.65;7.75;;;16.40;99.90;;;;;;5100941;28;20297;-78
2021/08/31 01:21:17;;;;;;;9.82;7.65;;;16.50;99.90;;;;;;5095472;28;20652;-73
2021/08/31 01:23:46;;;;;;;12.18;8.40;;;16.50;99.90;;;;;;5094904;28;20232;-73
2021/08/31 01:26:16;;;;;;;9.90;8.07;;;16.40;99.90;;;;;;5095145;28;20206;-73
2021/08/31 01:28:43;;;;;;;13.80;9.27;;;16.40;99.90;;;;;;5094863;28;20652;-74
2021/08/31 01:31:10;;;;;;;11.70;8.70;;;16.30;99.90;;;;;;5095070;28;20257;-73
2021/08/31 01:33:37;;;;;;;11.02;8.27;;;16.20;99.90;;;;;;5095324;28;20228;-73
2021/08/31 01:36:18;;;;;;;13.07;9.45;;;16.20;99.90;;;;;;5094626;28;20636;-73
2021/08/31 01:38:45;;;;;;;11.80;7.63;;;16.00;99.90;;;;;;5095206;28;20205;-73
2021/08/31 01:41:14;;;;;;;11.70;8.43;;;16.10;99.90;;;;;;5094500;28;20295;-74
2021/08/31 01:43:41;;;;;;;11.27;8.07;;;16.20;99.90;;;;;;5095010;28;20250;-74
2021/08/31 01:46:08;;;;;;;10.60;8.65;;;16.20;99.90;;;;;;5094810;28;20291;-73
2021/08/31 01:48:35;;;;;;;12.10;9.00;;;16.10;99.90;;;;;;5094999;28;20517;-73
2021/08/31 01:51:03;;;;;;;12.52;8.65;;;16.00;99.90;;;;;;5094962;28;20231;-73
2021/08/31 01:53:29;;;;;;;15.73;10.75;;;16.00;99.90;;;;;;5094495;28;20763;-73
2021/08/31 01:55:56;;;;;;;15.48;10.20;;;15.80;99.90;;;;;;5094520;28;20211;-73
2021/08/31 01:58:24;;;;;;;15.82;10.00;;;15.70;99.90;;;;;;5094023;28;20212;-73
2021/08/31 02:00:52;;;;;;;14.88;9.10;;;15.80;99.90;;;;;;5094597;28;20300;-73
2021/08/31 02:03:19;;;;;;;13.18;8.77;;;15.90;99.90;;;;;;5094402;28;20686;-73
2021/08/31 02:05:45;;;;;;;15.30;9.65;;;15.90;99.90;;;;;;5094530;28;20202;-73
2021/08/31 02:08:12;;;;;;;14.55;9.80;;;15.90;99.90;;;;;;5094137;28;20199;-74
2021/08/31 02:10:39;;;;;;;12.88;8.60;;;16.00;99.90;;;;;;5094327;28;20207;-73
2021/08/31 02:13:06;;;;;;;11.40;8.32;;;16.10;99.90;;;;;;5094412;28;20315;-74
2021/08/31 02:15:34;;;;;;;12.13;9.00;;;16.20;99.90;;;;;;5094311;28;20209;-73
2021/08/31 02:18:01;;;;;;;14.18;8.93;;;16.30;99.90;;;;;;5094524;28;20295;-73
2021/08/31 02:20:28;;;;;;;13.80;8.43;;;16.30;99.90;;;;;;5094539;28;20308;-74
2021/08/31 02:22:55;;;;;;;11.25;8.20;;;16.30;99.90;;;;;;5093937;28;20225;-74
2021/08/31 02:25:22;;;;;;;11.50;8.55;;;16.30;99.90;;;;;;5093859;28;20237;-74
2021/08/31 02:27:49;;;;;;;13.48;8.35;;;16.30;99.90;;;;;;5094284;28;20201;-74
2021/08/31 02:30:16;;;;;;;12.82;9.75;;;16.20;99.90;;;;;;5094364;28;20231;-74
2021/08/31 02:32:45;;;;;;;14.68;9.48;;;16.20;99.90;;;;;;5094110;28;20229;-73
2021/08/31 02:35:12;;;;;;;12.82;9.10;;;16.30;99.90;;;;;;5093550;28;20205;-74
2021/08/31 02:37:39;;;;;;;13.90;9.30;;;16.30;99.90;;;;;;5093767;28;20299;-73
2021/08/31 02:40:07;;;;;;;17.75;10.82;;;16.10;99.90;;;;;;5093839;28;20292;-73
2021/08/31 02:42:36;;;;;;;14.07;10.38;;;15.90;99.90;;;;;;5093910;28;20204;-74
2021/08/31 02:45:03;;;;;;;16.83;10.18;;;15.90;99.90;;;;;;5094206;28;20204;-74
2021/08/31 02:47:30;;;;;;;15.73;10.15;;;15.90;99.90;;;;;;5093914;28;20311;-73
2021/08/31 02:49:58;;;;;;;10.88;8.25;;;16.00;99.90;;;;;;5093761;28;20205;-73
2021/08/31 02:52:25;;;;;;;13.10;9.30;;;16.00;99.90;;;;;;5093672;28;20232;-73
2021/08/31 02:54:51;;;;;;;11.68;8.35;;;16.00;99.90;;;;;;5094000;28;20207;-74
2021/08/31 02:57:18;;;;;;;14.82;9.52;;;16.00;99.90;;;;;;5093947;28;20671;-73
2021/08/31 02:59:45;;;;;;;12.10;8.68;;;16.00;99.90;;;;;;5093955;28;20300;-74
2021/08/31 03:02:12;;;;;;;15.82;9.35;;;16.00;99.90;;;;;;5094148;28;20207;-73
2021/08/31 03:04:40;;;;;;;11.48;7.53;;;16.00;99.90;;;;;;5093777;28;20340;-74
2021/08/31 03:07:10;;;;;;;11.85;9.32;;;16.00;99.90;;;;;;5093696;28;20602;-73
2021/08/31 03:09:37;;;;;;;11.02;8.20;;;16.10;99.90;;;;;;5094551;28;20205;-74
2021/08/31 03:12:04;;;;;;;11.23;8.48;;;15.90;99.90;;;;;;5097452;28;20224;-74
2021/08/31 03:14:32;;;;;;;11.52;8.70;;;16.00;99.90;;;;;;5098428;28;20221;-73
2021/08/31 03:16:58;;;;;;;10.90;7.95;;;16.00;99.90;;;;;;5097498;28;20215;-73
2021/08/31 03:19:26;;;;;;;13.20;9.02;;;16.10;99.90;;;;;;5097709;28;20206;-73
2021/08/31 03:21:54;;;;;;;12.35;9.05;;;16.00;99.90;;;;;;5097749;28;20208;-74
2021/08/31 03:24:23;;;;;;;11.32;8.35;;;16.10;99.90;;;;;;5097937;28;20224;-73
2021/08/31 03:26:50;;;;;;;12.57;8.65;;;16.10;99.90;;;;;;5097700;28;20212;-73
2021/08/31 03:29:16;;;;;;;13.48;8.55;;;16.10;99.90;;;;;;5097980;28;20292;-73
2021/08/31 03:31:44;;;;;;;12.32;8.30;;;16.10;99.90;;;;;;5097124;28;20225;-73
2021/08/31 03:34:10;;;;;;;13.88;8.77;;;16.20;99.90;;;;;;5097274;28;20768;-73
2021/08/31 03:36:37;;;;;;;11.48;8.77;;;16.20;99.90;;;;;;5097337;28;20202;-74
2021/08/31 03:39:04;;;;;;;9.85;8.38;;;16.20;99.90;;;;;;5097559;28;20243;-73
2021/08/31 03:41:33;;;;;;;11.63;8.93;;;16.20;99.90;;;;;;5097467;28;20209;-73
2021/08/31 03:44:06;;;;;;;12.55;9.35;;;16.20;99.90;;;;;;5096958;28;20305;-73
2021/08/31 03:46:33;;;;;;;11.18;8.10;;;16.30;99.90;;;;;;5097182;28;20252;-73
2021/08/31 03:49:00;;;;;;;12.27;8.48;;;16.30;99.90;;;;;;5097287;28;20241;-74
2021/08/31 03:51:26;;;;;;;12.00;8.43;;;16.30;99.90;;;;;;5097212;28;20309;-74
2021/08/31 03:53:53;;;;;;;13.77;9.00;;;16.30;99.90;;;;;;5097236;28;20319;-73
2021/08/31 03:56:20;;;;;;;11.85;8.73;;;16.30;99.90;;;;;;5096917;28;20297;-73
2021/08/31 03:58:48;;;;;;;10.80;8.85;;;16.40;99.90;;;;;;5096922;28;20291;-73
2021/08/31 04:01:15;;;;;;;11.32;8.65;;;16.40;99.90;;;;;;5096966;28;20522;-73
2021/08/31 04:03:42;;;;;;;11.00;8.35;;;16.40;99.90;;;;;;5096835;28;20757;-73
2021/08/31 04:06:09;;;;;;;13.80;9.52;;;16.30;99.90;;;;;;5096280;28;20300;-73
2021/08/31 04:08:36;;;;;;;12.30;8.65;;;16.30;99.90;;;;;;5097008;28;20296;-73
2021/08/31 04:11:03;;;;;;;13.88;9.93;;;16.20;99.90;;;;;;5096606;28;20562;-73
2021/08/31 04:13:31;;;;;;;17.00;11.95;;;16.20;99.90;;;;;;5096568;28;20309;-73
2021/08/31 04:15:59;;;;;;;14.80;10.00;;;16.20;99.90;;;;;;5096438;28;20291;-73
2021/08/31 04:18:26;;;;;;;13.93;9.70;;;16.20;99.90;;;;;;5096774;28;20205;-73
2021/08/31 04:20:53;;;;;;;12.38;8.95;;;16.20;99.90;;;;;;5096621;28;20300;-73
2021/08/31 04:23:20;;;;;;;12.77;8.80;;;16.20;99.90;;;;;;5095739;28;20229;-73
2021/08/31 04:25:47;;;;;;;13.75;9.35;;;16.30;99.90;;;;;;5095986;28;20748;-73
2021/08/31 04:28:14;;;;;;;13.55;8.65;;;16.30;99.90;;;;;;5096222;28;20295;-73
2021/08/31 04:30:40;;;;;;;14.10;9.98;;;16.30;99.90;;;;;;5096270;28;20208;-73
2021/08/31 04:33:09;;;;;;;14.38;9.80;;;16.30;99.90;;;;;;5096100;28;20315;-74
2021/08/31 04:35:35;;;;;;;12.00;8.95;;;16.30;99.90;;;;;;5095938;28;20241;-73
2021/08/31 04:38:02;;;;;;;14.85;8.93;;;16.30;99.90;;;;;;5096488;28;20216;-73
2021/08/31 04:40:29;;;;;;;12.85;9.20;;;16.30;99.90;;;;;;5096069;28;20216;-74
2021/08/31 04:42:56;;;;;;;13.32;9.57;;;16.30;99.90;;;;;;5095922;28;20632;-73
2021/08/31 04:45:23;;;;;;;13.85;9.30;;;16.20;99.90;;;;;;5096011;28;20288;-73
2021/08/31 04:47:50;;;;;;;13.43;9.75;;;16.10;99.90;;;;;;5096220;28;20552;-73
2021/08/31 04:50:18;;;;;;;13.68;9.35;;;16.20;99.90;;;;;;5096173;28;20300;-73
2021/08/31 04:52:46;;;;;;;11.75;8.20;;;16.20;99.90;;;;;;5095792;28;20235;-74
2021/08/31 04:55:12;;;;;;;12.27;9.10;;;16.20;99.90;;;;;;5095568;28;20228;-74
2021/08/31 04:57:39;;;;;;;15.63;10.25;;;16.00;99.90;;;;;;5095949;28;20209;-73
2021/08/31 05:00:07;;;;;;;11.73;9.50;;;16.10;99.90;;;;;;5095956;28;20556;-73
2021/08/31 05:02:36;;;;;;;11.63;8.40;;;16.10;99.90;;;;;;5096084;28;20206;-73
2021/08/31 05:05:03;;;;;;;14.52;9.35;;;16.00;99.90;;;;;;5095752;28;20300;-73
2021/08/31 05:07:31;;;;;;;14.65;9.80;;;16.00;99.90;;;;;;5095552;28;20209;-73
2021/08/31 05:09:58;;;;;;;13.00;9.30;;;15.90;99.90;;;;;;5095657;28;20202;-73
2021/08/31 05:12:25;;;;;;;16.27;10.10;;;16.00;99.90;;;;;;5095353;28;20312;-73
2021/08/31 05:14:52;;;;;;;14.05;9.85;;;15.90;99.90;;;;;;5095944;28;20296;-73
2021/08/31 05:17:19;;;;;;;11.75;9.02;;;16.00;99.90;;;;;;5095338;28;20209;-74
2021/08/31 05:19:46;;;;;;;12.75;9.63;;;15.90;99.90;;;;;;5095213;28;20308;-73
2021/08/31 05:22:13;;;;;;;13.80;9.20;;;15.90;99.90;;;;;;5095309;28;20292;-74
2021/08/31 05:24:42;;;;;;;13.25;9.27;;;15.90;99.90;;;;;;5095458;28;20315;-74
2021/08/31 05:27:09;;;;;;;13.27;9.82;;;16.10;99.90;;;;;;5095270;28;20208;-73
2021/08/31 05:29:36;;;;;;;14.65;9.48;;;16.00;99.90;;;;;;5095465;28;20201;-74
2021/08/31 05:32:03;;;;;;;12.27;8.70;;;16.00;99.90;;;;;;5095366;28;20227;-73
2021/08/31 05:34:30;;;;;;;15.13;9.95;;;16.10;99.90;;;;;;5094056;28;20224;-74
2021/08/31 05:36:56;;;;;;;12.80;8.68;;;16.10;99.90;;;;;;5094908;28;20633;-73
2021/08/31 05:39:25;;;;;;;14.60;9.43;;;16.10;99.90;;;;;;5095062;28;20292;-74
2021/08/31 05:41:53;;;;;;;12.98;9.48;;;16.10;99.90;;;;;;5095191;28;20305;-74
2021/08/31 05:44:20;;;;;;;14.57;9.88;;;16.20;99.90;;;;;;5095455;28;20316;-74
2021/08/31 05:46:46;;;;;;;11.65;8.35;;;16.30;99.90;;;;;;5095006;28;20244;-74
2021/08/31 05:49:13;;;;;;;12.07;9.00;;;16.30;99.90;;;;;;5094805;28;20285;-74
2021/08/31 05:51:40;;;;;;;17.25;9.35;;;16.30;99.90;;;;;;5094575;28;20296;-74
2021/08/31 05:54:07;;;;;;;13.95;9.57;;;16.30;99.90;;;;;;5095063;28;20311;-74
2021/08/31 05:56:34;;;;;;;12.73;9.27;;;16.40;99.90;;;;;;5094797;28;20212;-74
2021/08/31 05:59:02;;;;;;;13.38;8.55;;;16.20;99.90;;;;;;5094939;28;20250;-74
2021/08/31 06:01:29;;;;;;;12.57;10.00;;;16.00;99.90;;;;;;5094256;28;20205;-73
2021/08/31 06:03:55;;;;;;;14.95;9.20;;;15.70;99.90;;;;;;5094339;28;20324;-74
2021/08/31 06:06:22;;;;;;;13.27;8.98;;;15.60;99.90;;;;;;5094288;28;20211;-73
2021/08/31 06:08:49;;;;;;;11.60;9.65;;;15.70;99.90;;;;;;5094593;28;20672;-74
2021/08/31 06:11:18;;;;;;;16.75;9.80;;;15.60;99.90;;;;;;5094628;28;20296;-74
2021/08/31 06:13:45;;;;;;;14.70;9.65;;;15.50;99.90;;;;;;5094579;28;20229;-73
2021/08/31 06:16:13;;;;;;;12.32;8.60;;;15.60;99.90;;;;;;5094198;28;20240;-74
2021/08/31 06:18:41;;;;;;;14.93;9.90;;;15.60;99.90;;;;;;5094416;28;20606;-74
2021/08/31 06:21:08;;;;;;;15.00;10.02;;;15.40;99.90;;;;;;5094447;28;20253;-74
2021/08/31 06:23:34;;;;;;;16.58;9.45;;;15.50;99.90;;;;;;5093883;28;20749;-74
2021/08/31 06:26:01;;;;;;;12.60;8.82;;;15.60;99.90;;;;;;5094174;28;20304;-74
2021/08/31 06:28:28;;;;;;;13.60;9.40;;;15.70;99.90;;;;;;5094032;28;20292;-74
2021/08/31 06:30:55;;;;;;;11.98;8.32;;;15.80;99.90;;;;;;5094168;28;20256;-74
2021/08/31 06:33:23;;;;;;;13.95;8.95;;;15.80;99.90;;;;;;5093849;28;20235;-74
2021/08/31 06:35:50;;;;;;;14.50;9.23;;;15.90;99.90;;;;;;5093568;28;20209;-74
2021/08/31 06:38:17;;;;;;;14.88;8.95;;;15.90;99.90;;;;;;5094295;28;20229;-74
2021/08/31 06:40:44;;;;;;;14.02;8.90;;;15.80;99.90;;;;;;5094197;28;20208;-74
2021/08/31 06:43:11;;;;;;;10.57;8.55;;;15.80;99.90;;;;;;5093859;28;20726;-74
2021/08/31 06:45:38;;;;;;;10.35;8.10;;;15.90;99.90;;;;;;5093535;28;20213;-74
2021/08/31 06:48:05;;;;;;;10.30;8.05;;;16.10;99.90;;;;;;5094027;28;20205;-74
2021/08/31 06:50:34;;;;;;;13.68;8.82;;;16.10;99.90;;;;;;5093935;28;20647;-74
2021/08/31 06:53:01;;;;;;;10.15;8.30;;;16.00;99.90;;;;;;5093839;28;20232;-74
2021/08/31 06:55:28;;;;;;;10.25;7.85;;;15.90;99.90;;;;;;5093796;28;20233;-74
2021/08/31 06:57:54;;;;;;;11.10;8.60;;;16.00;99.90;;;;;;5093798;28;20281;-74
2021/08/31 07:00:21;;;;;;;12.00;8.43;;;16.10;99.90;;;;;;5093850;28;20240;-74
2021/08/31 07:02:48;;;;;;;13.80;8.13;;;16.00;99.90;;;;;;5093541;28;20271;-74
2021/08/31 07:05:15;;;;;;;11.50;7.78;;;16.00;99.90;;;;;;5094061;28;20219;-74
2021/08/31 07:07:43;;;;;;;10.68;7.72;;;15.90;99.90;;;;;;5094063;28;20293;-74
2021/08/31 07:10:11;;;;;;;13.13;8.63;;;15.90;99.90;;;;;;5093801;28;20209;-74
2021/08/31 07:12:38;;;;;;;10.48;7.70;;;15.80;99.90;;;;;;5093212;28;20228;-74
2021/08/31 07:15:08;;;;;;;10.93;7.93;;;15.80;99.90;;;;;;5093356;28;20294;-74
2021/08/31 07:17:34;;;;;;;9.90;7.90;;;15.90;99.90;;;;;;5093927;28;20205;-74
2021/08/31 07:20:01;;;;;;;9.55;7.30;;;16.10;99.90;;;;;;5093875;28;20209;-74
2021/08/31 07:22:28;;;;;;;10.82;8.25;;;16.20;99.90;;;;;;5093414;28;20203;-74
2021/08/31 07:24:56;;;;;;;8.70;6.95;;;16.30;99.90;;;;;;5093391;28;20635;-75
2021/08/31 07:27:23;;;;;;;11.82;7.57;;;16.40;99.90;;;;;;5093593;28;20614;-74
2021/08/31 07:29:50;;;;;;;8.30;7.25;;;16.30;99.90;;;;;;5093671;28;20205;-75
2021/08/31 07:32:17;;;;;;;9.23;6.63;;;16.30;99.90;;;;;;5093554;28;20208;-75
2021/08/31 07:34:44;;;;;;;10.98;7.38;;;16.30;99.90;;;;;;5093583;28;20292;-74
2021/08/31 07:37:11;;;;;;;8.57;7.28;;;16.20;99.90;;;;;;5093282;28;20214;-75
2021/08/31 07:39:37;;;;;;;8.95;7.43;;;16.30;99.90;;;;;;5093431;28;20206;-75
2021/08/31 07:42:06;;;;;;;9.73;7.25;;;16.40;99.90;;;;;;5093246;28;20217;-75
2021/08/31 07:44:33;;;;;;;7.97;6.97;;;16.40;99.90;;;;;;5093375;28;20310;-74
2021/08/31 07:47:00;;;;;;;8.85;7.43;;;16.40;99.90;;;;;;5093478;28;20240;-74
2021/08/31 07:49:27;;;;;;;8.73;6.80;;;16.50;99.90;;;;;;5093615;28;20292;-74
2021/08/31 07:51:54;;;;;;;8.13;5.95;;;16.60;99.90;;;;;;5093202;28;20198;-75
2021/08/31 07:54:21;;;;;;;7.05;5.60;;;16.60;99.90;;;;;;5093343;28;20234;-75
2021/08/31 07:56:48;;;;;;;8.57;6.60;;;16.80;99.90;;;;;;5093894;28;20202;-74
2021/08/31 07:59:16;;;;;;;7.45;6.57;;;16.80;99.90;;;;;;5097197;28;20302;-74
2021/08/31 08:01:43;;;;;;;7.82;6.38;;;16.70;99.90;;;;;;5097194;28;20304;-74
2021/08/31 08:04:10;;;;;;;9.43;6.65;;;16.50;99.90;;;;;;5097123;28;20684;-74
2021/08/31 08:06:38;;;;;;;7.75;6.60;;;16.50;99.90;;;;;;5094367;28;20245;-75
2021/08/31 08:09:05;;;;;;;8.15;6.57;;;16.50;99.90;;;;;;5084899;28;20599;-76
2021/08/31 08:11:32;;;;;;;8.32;6.72;;;16.60;99.90;;;;;;5077980;28;20242;-79
2021/08/31 08:13:59;;;;;;;9.05;7.43;;;16.60;99.90;;;;;;5078393;28;20759;-77
2021/08/31 08:16:27;;;;;;;9.40;7.28;;;16.70;99.90;;;;;;5078313;28;20245;-77
2021/08/31 08:18:54;;;;;;;7.68;6.40;;;16.70;99.90;;;;;;5078366;28;20679;-77
2021/08/31 08:21:21;;;;;;;8.07;6.55;;;16.60;99.90;;;;;;5078182;28;20252;-77
2021/08/31 08:23:48;;;;;;;7.47;5.47;;;16.60;99.90;;;;;;5078473;28;20307;-78
2021/08/31 08:26:15;;;;;;;8.35;6.20;;;16.60;99.90;;;;;;5078317;28;20244;-78
2021/08/31 08:28:42;;;;;;;8.45;6.25;;;16.50;99.90;;;;;;5077937;28;20301;-78
2021/08/31 08:31:09;;;;;;;8.57;6.93;;;16.50;99.90;;;;;;5078080;28;20217;-78
2021/08/31 08:33:38;;;;;;;7.57;6.70;;;16.50;99.90;;;;;;5077975;28;20320;-77
2021/08/31 08:36:06;;;;;;;8.18;6.63;;;16.60;99.90;;;;;;5077878;28;20216;-78
2021/08/31 08:38:34;;;;;;;8.60;6.40;;;16.60;99.90;;;;;;5079490;28;20699;-77
2021/08/31 08:41:04;;;;;;;9.82;6.43;;;16.60;99.90;;;;;;5081024;28;20274;-78
2021/08/31 08:43:32;;;;;;;7.65;6.40;;;16.70;99.90;;;;;;5083716;28;20223;-78
2021/08/31 08:46:03;;;;;;;10.00;6.20;;;16.90;99.90;;;;;;5081624;28;20213;-78
2021/08/31 08:48:30;;;;;;;6.72;5.93;;;17.00;99.90;;;;;;5077126;28;20203;-78
2021/08/31 08:51:01;;;;;;;8.98;6.22;;;17.20;99.90;;;;;;5078174;28;20202;-77
2021/08/31 08:53:31;;;;;;;6.95;5.40;;;17.30;99.90;;;;;;5079907;28;20262;-79
2021/08/31 08:56:00;;;;;;;11.00;7.32;;;17.30;99.90;;;;;;5077496;28;20262;-77
2021/08/31 08:58:27;;;;;;;9.77;6.72;;;17.30;99.90;;;;;;5076023;28;20673;-76
2021/08/31 09:01:00;;;;;;;8.82;6.10;;;17.10;99.90;;;;;;5075697;28;20229;-75
2021/08/31 09:03:28;;;;;;;7.22;6.47;;;17.00;99.90;;;;;;5075843;28;20229;-75
2021/08/31 09:06:08;;;;;;;6.72;5.20;;;17.00;99.90;;;;;;5075067;28;20301;-75
2021/08/31 09:08:35;;;;;;;7.63;5.70;;;17.00;99.90;;;;;;5075507;28;20212;-75
2021/08/31 09:11:17;;;;;;;6.18;5.57;;;17.20;99.90;;;;;;5075180;28;20214;-75
2021/08/31 09:13:44;;;;;;;9.32;7.15;;;17.30;99.90;;;;;;5075386;28;20313;-75
2021/08/31 09:16:26;;;;;;;6.38;5.72;;;17.30;99.90;;;;;;5075079;28;20554;-75
2021/08/31 09:18:53;;;;;;;6.75;5.25;;;17.20;99.90;;;;;;5075628;28;20290;-75
2021/08/31 09:21:26;;;;;;;5.97;4.90;;;17.50;99.90;;;;;;5075347;28;20199;-75
2021/08/31 09:23:55;;;;;;;6.38;5.45;;;17.70;99.90;;;;;;5074800;28;20273;-76
2021/08/31 09:26:34;;;;;;;9.63;5.55;;;17.90;99.90;;;;;;5074922;28;20207;-75
2021/08/31 09:29:05;;;;;;;6.90;5.90;;;18.30;99.90;;;;;;5075244;28;20210;-75
2021/08/31 09:31:47;;;;;;;6.35;5.35;;;18.40;99.90;;;;;;5075246;28;20484;-75
2021/08/31 09:34:42;;;;;;;6.50;5.63;;;18.10;99.90;;;;;;5074882;28;20226;-75
2021/08/31 09:37:31;;;;;;;7.60;6.43;;;17.80;99.90;;;;;;5074861;28;20225;-76
2021/08/31 09:40:04;;;;;;;6.35;5.68;;;17.50;99.90;;;;;;5075291;28;20210;-75
2021/08/31 09:42:31;;;;;;;5.07;4.57;;;17.60;99.90;;;;;;5074295;28;20210;-76
2021/08/31 09:45:01;;;;;;;6.28;5.38;;;17.70;99.90;;;;;;5074764;28;20563;-76
2021/08/31 09:47:34;;;;;;;6.10;5.35;;;17.80;99.90;;;;;;5075149;28;20289;-76
2021/08/31 09:50:02;;;;;;;6.05;5.25;;;17.70;99.90;;;;;;5074771;28;20668;-75
2021/08/31 09:52:31;;;;;;;5.65;5.05;;;17.80;99.90;;;;;;5074776;28;20210;-75
2021/08/31 09:54:59;;;;;;;5.70;4.90;;;17.80;99.90;;;;;;5074276;28;20227;-75
2021/08/31 09:57:27;;;;;;;7.13;4.95;;;17.80;99.90;;;;;;5074267;28;20205;-75
2021/08/31 09:59:54;;;;;;;6.32;5.35;;;18.00;99.90;;;;;;5074533;28;20290;-75
2021/08/31 10:02:22;;;;;;;6.03;5.15;;;18.20;99.90;;;;;;5074381;28;20298;-75
2021/08/31 10:04:48;;;;;;;5.72;4.80;;;18.00;99.90;;;;;;5074356;28;20728;-75
2021/08/31 10:07:15;;;;;;;5.70;5.05;;;17.90;99.90;;;;;;5073874;28;20293;-75
2021/08/31 10:09:44;;;;;;;7.85;5.80;;;17.80;99.90;;;;;;5074439;28;20294;-75
2021/08/31 10:12:11;;;;;;;7.68;6.70;;;17.90;99.90;;;;;;5074271;28;20297;-76
2021/08/31 10:14:42;;;;;;;11.40;9.23;;;17.80;99.90;;;;;;5074132;28;20687;-75
2021/08/31 10:17:10;;;;;;;5.57;5.07;;;17.80;99.90;;;;;;5074446;28;20299;-75
2021/08/31 10:19:37;;;;;;;6.20;5.60;;;17.80;99.90;;;;;;5073846;28;20203;-75
2021/08/31 10:22:05;;;;;;;6.57;5.53;;;17.90;99.90;;;;;;5073766;28;20206;-75
2021/08/31 10:24:32;;;;;;;5.65;4.75;;;18.00;99.90;;;;;;5073824;28;20764;-76
2021/08/31 10:27:32;;;;;;;6.53;5.38;;;17.90;99.90;;;;;;5073981;28;20612;-75
2021/08/31 10:30:36;;;;;;;5.47;4.88;;;18.10;99.90;;;;;;5074541;28;20301;-75
2021/08/31 10:33:26;;;;;;;6.53;4.93;;;18.10;99.90;;;;;;5011972;28;20747;-75
2021/08/31 10:35:54;;;;;;;4.93;4.43;;;18.10;99.90;;;;;;5071548;28;20199;-75
2021/08/31 10:38:41;;;;;;;6.13;5.40;;;18.00;99.90;;;;;;5074082;28;20240;-75
2021/08/31 10:41:34;;;;;;;6.50;4.97;;;17.80;99.90;;;;;;5073542;28;20217;-75
2021/08/31 10:44:04;;;;;;;4.28;3.88;;;17.80;99.90;;;;;;5073853;28;20305;-75
2021/08/31 10:47:05;;;;;;;5.20;4.53;;;18.00;99.90;;;;;;5073280;28;20615;-75
2021/08/31 10:49:32;;;;;;;5.00;4.50;;;18.20;99.90;;;;;;5073891;28;20556;-76
2021/08/31 10:52:06;;;;;;;4.85;4.45;;;18.30;99.90;;;;;;5073862;28;20199;-75
2021/08/31 10:54:47;;;;;;;5.10;4.22;;;18.40;99.90;;;;;;5074022;28;20318;-75
2021/08/31 10:57:42;;;;;;;6.05;4.93;;;18.40;99.90;;;;;;5073610;28;20210;-75
2021/08/31 11:00:43;;;;;;;6.55;4.75;;;18.30;99.90;;;;;;5073639;28;20653;-75
2021/08/31 11:03:11;;;;;;;5.30;4.53;;;18.10;99.90;;;;;;5073876;28;20329;-75
2021/08/31 11:05:38;;;;;;;5.45;4.45;;;18.10;99.90;;;;;;5073472;28;20202;-75
2021/08/31 11:08:15;;;;;;;5.77;5.17;;;18.20;99.90;;;;;;5073369;28;20233;-76
2021/08/31 11:10:44;;;;;;;6.25;5.30;;;18.40;99.90;;;;;;5073623;28;20448;-76
2021/08/31 11:13:13;;;;;;;5.90;4.85;;;18.50;99.90;;;;;;5073968;28;20264;-75
2021/08/31 11:15:41;;;;;;;6.05;5.28;;;18.50;99.90;;;;;;5073617;28;20207;-75
2021/08/31 11:18:09;;;;;;;5.83;4.90;;;18.50;99.90;;;;;;5073393;28;20207;-75
2021/08/31 11:20:40;;;;;;;5.70;5.07;;;18.40;99.90;;;;;;5073880;28;20438;-76
2021/08/31 11:23:10;;;;;;;7.40;5.45;;;18.50;99.90;;;;;;5073191;28;20514;-75
2021/08/31 11:25:39;;;;;;;5.75;5.15;;;18.60;99.90;;;;;;5073096;28;20199;-75
2021/08/31 11:28:08;;;;;;;5.47;4.73;;;18.70;99.90;;;;;;5073772;28;20204;-75
2021/08/31 11:30:50;;;;;;;5.57;4.97;;;18.90;99.90;;;;;;5073208;28;20529;-75
2021/08/31 11:33:20;;;;;;;5.00;4.50;;;18.90;99.90;;;;;;5076346;28;20461;-75
2021/08/31 11:35:49;;;;;;;6.63;5.57;;;18.90;99.90;;;;;;5077140;28;20524;-75
2021/08/31 11:38:15;;;;;;;5.30;4.87;;;19.00;99.90;;;;;;5077380;28;20439;-75
2021/08/31 11:40:43;;;;;;;6.33;5.37;;;19.10;99.90;;;;;;5077229;28;20468;-76
2021/08/31 11:43:09;;;;;;;6.63;5.77;;;19.10;99.90;;;;;;5076965;28;20467;-75
2021/08/31 11:45:38;;;;;;;4.73;4.33;;;19.20;99.90;;;;;;5076695;28;20905;-75
2021/08/31 11:48:07;;;;;;;7.13;5.70;;;19.40;99.90;;;;;;5077105;28;20833;-75
2021/08/31 11:50:34;;;;;;;5.23;4.73;;;19.40;99.90;;;;;;5077190;28;20442;-75
2021/08/31 11:53:17;;;;;;;5.70;4.73;;;19.50;99.90;;;;;;5076897;28;20460;-75
2021/08/31 11:55:44;;;;;;;5.43;4.70;;;19.70;99.90;;;;;;5076515;28;20529;-75
2021/08/31 11:58:11;;;;;;;5.23;4.73;;;19.50;99.90;;;;;;5076805;28;20532;-75
2021/08/31 12:00:42;;;;;;;4.97;4.47;;;19.30;99.90;;;;;;5076862;28;20529;-75
2021/08/31 12:03:22;;;;;;;6.00;4.97;;;19.00;99.90;;;;;;5076978;28;20223;-75
2021/08/31 12:05:54;;;;;;;5.50;4.90;;;18.90;99.90;;;;;;5076748;28;20436;-75
2021/08/31 12:08:24;;;;;;;6.37;5.77;;;18.90;99.90;;;;;;5077117;28;20850;-75
2021/08/31 12:10:53;;;;;;;5.77;5.13;;;19.10;99.90;;;;;;5076370;28;20455;-75
2021/08/31 12:13:21;;;;;;;5.17;4.67;;;19.20;99.90;;;;;;5076076;28;20475;-75
2021/08/31 12:15:49;;;;;;;5.40;4.37;;;19.30;99.90;;;;;;5076148;28;20478;-75
2021/08/31 12:18:19;;;;;;;5.13;4.63;;;19.20;99.90;;;;;;5076660;28;20438;-74
2021/08/31 12:20:46;;;;;;;5.43;4.90;;;19.30;99.90;;;;;;5076390;28;20450;-75
2021/08/31 12:23:14;;;;;;;4.80;4.27;;;19.30;99.90;;;;;;5076239;28;20472;-75
2021/08/31 12:25:44;;;;;;;4.70;4.20;;;19.40;99.90;;;;;;5075738;28;20549;-75
2021/08/31 12:28:11;;;;;;;6.37;5.03;;;19.30;99.90;;;;;;5076469;28;20481;-75
2021/08/31 12:30:39;;;;;;;7.07;5.30;;;19.20;99.90;;;;;;5076514;28;20446;-75
2021/08/31 12:33:07;;;;;;;5.43;4.53;;;19.20;99.90;;;;;;5076106;28;20548;-75
2021/08/31 12:35:38;;;;;;;5.37;4.40;;;19.50;99.90;;;;;;5075980;28;20479;-75
2021/08/31 12:38:17;;;;;;;5.63;5.03;;;19.60;99.90;;;;;;5076564;28;20484;-75
2021/08/31 12:41:03;;;;;;;5.33;4.83;;;19.90;99.90;;;;;;5076228;28;20904;-75
2021/08/31 12:43:42;;;;;;;5.67;5.07;;;19.70;99.90;;;;;;5075389;28;20470;-75
2021/08/31 12:46:09;;;;;;;4.97;4.47;;;19.70;99.90;;;;;;5076014;28;20530;-75
2021/08/31 12:48:37;;;;;;;4.23;3.83;;;19.60;99.90;;;;;;5076402;28;20435;-75